Time;durP1;ratioP1;P1;durP2;ratioP2;P2;SDS_P1;SDS_P2;PMS_P1;PMS_P2;Temp;Humidity;BMP_temperature;BMP_pressure;BME280_temperature;BME280_humidity;BME280_pressure;Samples;Min_cycle;Max_cycle;Signal;HPM_P1;HPM_P2
2023/06/12 00:00:47;;;;;;;6.45;4.75;;;;;;;18.38;nan;55309.72;4995122;28;20180;-57
2023/06/12 00:03:13;;;;;;;7.93;4.47;;;;;;;18.29;nan;55295.81;4996385;28;20164;-57
2023/06/12 00:05:45;;;;;;;6.60;4.55;;;;;;;18.12;nan;55089.91;4996158;28;20176;-55
2023/06/12 00:08:13;;;;;;;8.15;4.47;;;;;;;18.18;nan;54948.94;4996060;28;20204;-57
2023/06/12 00:10:42;;;;;;;7.90;4.53;;;;;;;18.03;nan;54183.31;4996294;28;20183;-57
2023/06/12 00:13:09;;;;;;;9.60;4.95;;;;;;;18.22;nan;53523.41;4996394;28;20651;-57
2023/06/12 00:15:35;;;;;;;8.25;4.63;;;;;;;18.07;nan;49554.03;4996389;28;20165;-57
2023/06/12 00:18:01;;;;;;;8.25;4.82;;;;;;;17.78;nan;45965.34;4995793;28;20551;-56
2023/06/12 00:20:27;;;;;;;8.48;4.70;;;;;;;18.06;nan;45912.16;4995453;28;20659;-57
2023/06/12 00:22:53;;;;;;;10.95;4.93;;;;;;;17.87;nan;46942.84;4995699;28;20199;-57
2023/06/12 00:25:19;;;;;;;9.30;5.10;;;;;;;17.67;nan;43377.03;4995992;28;20164;-57
2023/06/12 00:27:44;;;;;;;8.35;5.15;;;;;;;17.71;nan;34552.94;4995686;28;20571;-56
2023/06/12 00:30:10;;;;;;;6.55;4.63;;;;;;;17.79;nan;29639.75;4994595;28;20364;-58
2023/06/12 00:32:35;;;;;;;9.50;4.78;;;;;;;17.94;nan;30304.38;4996149;28;20184;-58
2023/06/12 00:35:01;;;;;;;6.65;4.57;;;;;;;17.95;nan;32600.53;4995383;28;20709;-57
2023/06/12 00:37:27;;;;;;;7.30;4.72;;;;;;;17.47;nan;26020.13;4996033;28;20244;-56
2023/06/12 00:39:53;;;;;;;8.25;4.72;;;;;;;17.48;nan;24385.56;4995692;28;20247;-56
2023/06/12 00:42:20;;;;;;;7.82;5.00;;;;;;;17.65;nan;20471.44;4995849;28;20311;-56
2023/06/12 00:44:46;;;;;;;7.07;5.07;;;;;;;17.43;nan;17850.03;4995345;28;20180;-56
2023/06/12 00:47:13;;;;;;;9.70;5.30;;;;;;;17.68;nan;17533.66;4995351;28;20184;-57
2023/06/12 00:49:38;;;;;;;7.68;5.22;;;;;;;17.69;nan;17207.66;4994861;28;20176;-57
2023/06/12 00:52:05;;;;;;;8.60;4.68;;;;;;;17.66;nan;16227.44;4993711;28;20173;-58
2023/06/12 00:54:31;;;;;;;9.65;5.05;;;;;;;17.58;nan;16877.13;4995463;28;20173;-56
2023/06/12 00:56:57;;;;;;;5.75;4.30;;;;;;;17.78;nan;18190.53;4994787;28;20176;-56
2023/06/12 00:59:23;;;;;;;7.97;5.20;;;;;;;17.91;nan;19502.63;4995234;28;20580;-59
2023/06/12 01:01:49;;;;;;;6.75;4.65;;;;;;;18.04;nan;24414.31;4994967;28;20176;-56
2023/06/12 01:04:16;;;;;;;7.35;4.63;;;;;;;17.98;nan;25065.53;4994646;28;20656;-58
2023/06/12 01:06:54;;;;;;;9.48;5.22;;;;;;;17.77;nan;21130.22;4994905;28;20212;-58
2023/06/12 01:09:36;;;;;;;7.13;4.82;;;;;;;17.69;nan;17207.66;4994814;28;20164;-56
2023/06/12 01:12:04;;;;;;;8.25;4.95;;;;;;;17.40;nan;14913.31;4995271;28;20175;-56
2023/06/12 01:14:29;;;;;;;7.97;5.15;;;;;;;17.40;nan;13935.41;4993265;28;20181;-57
2023/06/12 01:16:58;;;;;;;6.00;4.38;;;;;;;17.62;nan;13616.81;4994670;28;20173;-56
2023/06/12 01:19:24;;;;;;;7.97;4.80;;;;;;;17.43;nan;13284.47;4994943;28;20219;-58
2023/06/12 01:21:57;;;;;;;6.85;4.57;;;;;;;17.82;nan;15254.63;4995223;28;20648;-56
2023/06/12 01:24:56;;;;;;;8.55;5.40;;;;;;;17.82;nan;16886.19;4994507;28;20616;-56
2023/06/12 01:27:34;;;;;;;8.77;4.97;;;;;;;17.78;nan;14926.91;4994686;28;20215;-55
2023/06/12 01:30:21;;;;;;;6.50;4.35;;;;;;;17.82;nan;13949.59;4994302;28;20611;-55
2023/06/12 01:32:50;;;;;;;7.43;4.65;;;;;;;17.91;nan;17542.97;4994339;28;20168;-58
2023/06/12 01:35:22;;;;;;;9.45;5.32;;;;;;;17.93;nan;17217.25;4994406;28;20203;-57
2023/06/12 01:37:50;;;;;;;9.35;5.65;;;;;;;17.85;nan;12972.31;4994538;28;20171;-57
2023/06/12 01:40:18;;;;;;;10.23;5.15;;;;;;;17.97;nan;13628.56;4994026;28;20228;-56
2023/06/12 01:42:44;;;;;;;9.52;4.95;;;;;;;17.39;nan;13283.28;4994789;28;20706;-57
2023/06/12 01:45:10;;;;;;;9.93;5.13;;;;;;;17.80;nan;12970.81;4994184;28;20647;-56
2023/06/12 01:47:36;;;;;;;7.63;4.93;;;;;;;17.56;nan;13940.78;4976684;28;20177;-57
2023/06/12 01:50:03;;;;;;;8.63;5.22;;;;;;;17.78;nan;12970.00;4993746;28;20181;-56
2023/06/12 01:52:29;;;;;;;7.45;4.85;;;;;;;17.82;nan;13949.78;4993952;28;20176;-55
2023/06/12 01:54:58;;;;;;;9.32;5.97;;;;;;;17.78;nan;13296.19;4994523;28;20701;-56
2023/06/12 01:57:23;;;;;;;8.15;4.95;;;;;;;17.75;nan;12969.00;4993896;28;20234;-57
2023/06/12 01:59:49;;;;;;;8.98;5.57;;;;;;;17.53;nan;14917.84;4993751;28;20212;-57
2023/06/12 02:02:18;;;;;;;8.55;5.20;;;;;;;17.48;nan;15568.41;4994088;28;20181;-55
2023/06/12 02:04:43;;;;;;;8.95;5.53;;;;;;;17.57;nan;17203.03;4992938;28;20241;-57
2023/06/12 02:07:09;;;;;;;11.43;5.75;;;;;;;17.73;nan;18514.97;4993564;28;20184;-55
2023/06/12 02:09:36;;;;;;;7.57;5.18;;;;;;;17.71;nan;18187.81;4993631;28;20200;-57
2023/06/12 02:12:01;;;;;;;8.50;5.28;;;;;;;17.62;nan;18184.28;4993735;28;20230;-56
2023/06/12 02:14:27;;;;;;;7.28;4.95;;;;;;;17.55;nan;17854.97;4993526;28;20165;-58
2023/06/12 02:16:53;;;;;;;10.45;5.55;;;;;;;17.59;nan;18183.03;4993653;28;20255;-58
2023/06/12 02:19:22;;;;;;;8.02;4.80;;;;;;;17.36;nan;17847.19;4993310;28;20204;-56
2023/06/12 02:21:49;;;;;;;8.35;5.45;;;;;;;17.56;nan;17855.16;4993744;28;20631;-58
2023/06/12 02:24:15;;;;;;;7.80;5.25;;;;;;;17.60;nan;18509.94;4993640;28;20592;-56
2023/06/12 02:26:41;;;;;;;9.18;5.15;;;;;;;17.39;nan;17522.13;4993536;28;20181;-58
2023/06/12 02:29:08;;;;;;;7.38;5.00;;;;;;;17.54;nan;19813.22;4993696;28;20176;-57
2023/06/12 02:31:34;;;;;;;7.20;5.18;;;;;;;17.52;nan;20465.53;4993192;28;20169;-57
2023/06/12 02:33:59;;;;;;;8.27;5.50;;;;;;;17.57;nan;19487.97;4992975;28;20215;-56
2023/06/12 02:36:25;;;;;;;10.35;5.55;;;;;;;17.61;nan;18836.84;4993526;28;20586;-57
2023/06/12 02:38:51;;;;;;;8.50;5.05;;;;;;;17.49;nan;16873.56;4992771;28;20193;-59
2023/06/12 02:41:16;;;;;;;9.43;5.45;;;;;;;17.36;nan;16868.47;4992834;28;20224;-56
2023/06/12 02:43:42;;;;;;;10.57;6.07;;;;;;;17.71;nan;20147.22;4993126;28;20185;-57
2023/06/12 02:46:07;;;;;;;10.43;5.88;;;;;;;17.82;nan;21132.78;4992842;28;20173;-57
2023/06/12 02:48:33;;;;;;;9.30;5.82;;;;;;;17.77;nan;21783.94;4992974;28;20173;-57
2023/06/12 02:50:58;;;;;;;10.70;5.95;;;;;;;17.85;nan;27350.22;4992962;28;20268;-55
2023/06/12 02:53:23;;;;;;;10.63;5.65;;;;;;;17.91;nan;25062.09;4992673;28;20176;-56
2023/06/12 02:55:51;;;;;;;7.55;5.00;;;;;;;17.77;nan;25709.19;4992577;28;20183;-56
2023/06/12 02:58:17;;;;;;;7.35;4.82;;;;;;;17.78;nan;26364.09;4991862;28;20184;-56
2023/06/12 03:00:43;;;;;;;8.25;4.93;;;;;;;17.82;nan;26693.66;4992254;28;20184;-57
2023/06/12 03:03:09;;;;;;;7.07;5.10;;;;;;;18.20;nan;28352.91;4992573;28;20175;-58
2023/06/12 03:05:36;;;;;;;7.05;4.80;;;;;;;18.00;nan;32275.75;4992468;28;20259;-56
2023/06/12 03:08:04;;;;;;;8.57;4.80;;;;;;;18.37;nan;36569.22;4991811;28;20180;-57
2023/06/12 03:10:30;;;;;;;11.93;5.78;;;;;;;18.59;nan;46637.69;4996917;28;20176;-57
2023/06/12 03:12:56;;;;;;;9.88;5.60;;;;;;;19.22;nan;52800.78;4992112;28;20630;-56
2023/06/12 03:15:21;;;;;;;11.15;5.72;;;;;;;19.22;nan;55225.06;4991522;28;20248;-57
2023/06/12 03:17:47;;;;;;;7.72;5.10;;;;;;;;;;4992296;28;20179;-57
2023/06/12 03:20:14;;;;;;;8.07;5.20;;;;;;;19.85;nan;56625.06;4992184;28;20224;-56
2023/06/12 03:22:41;;;;;;;8.90;5.07;;;;;;;20.46;nan;58341.50;4992477;28;20176;-58
2023/06/12 03:25:08;;;;;;;7.97;5.25;;;;;;;20.97;nan;59499.66;4992068;28;20199;-56
2023/06/12 03:27:33;;;;;;;8.07;4.97;;;;;;;21.20;nan;60006.91;4991424;28;20173;-58
2023/06/12 03:29:59;;;;;;;9.90;5.38;;;;;;;20.58;nan;59859.00;5000378;28;20215;-56
2023/06/12 03:32:26;;;;;;;7.03;5.00;;;;;;;20.43;nan;59489.72;4998494;28;20203;-57
2023/06/12 03:34:51;;;;;;;9.32;5.13;;;;;;;20.03;nan;58674.53;5000689;28;20284;-59
2023/06/12 03:37:18;;;;;;;7.05;4.88;;;;;;;19.32;nan;57022.13;4992004;28;20216;-56
2023/06/12 03:39:44;;;;;;;8.52;5.03;;;;;;;19.51;nan;55820.38;4990603;28;20259;-58
2023/06/12 03:42:10;;;;;;;6.93;4.85;;;;;;;19.37;nan;54968.94;5000332;28;20224;-58
2023/06/12 03:44:36;;;;;;;11.13;5.13;;;;;;;19.50;nan;54500.22;4992586;28;20190;-59
2023/06/12 03:47:01;;;;;;;8.35;5.07;;;;;;;19.84;nan;54889.22;4977853;28;20284;-59
2023/06/12 03:49:26;;;;;;;8.82;4.97;;;;;;;19.95;nan;54985.88;4987542;28;20180;-59
2023/06/12 03:51:52;;;;;;;11.70;4.82;;;;;;;20.01;nan;55227.09;4991819;28;20651;-58
2023/06/12 03:54:19;;;;;;;8.38;5.40;;;;;;;20.12;nan;56518.19;4992066;28;20558;-56
2023/06/12 03:56:44;;;;;;;7.97;5.13;;;;;;;20.27;nan;57909.94;4991715;28;20643;-60
2023/06/12 03:59:10;;;;;;;8.85;5.60;;;;;;;20.15;nan;57961.34;4991169;28;20207;-58
2023/06/12 04:01:38;;;;;;;9.18;5.28;;;;;;;20.53;nan;58377.59;4991784;28;20172;-59
2023/06/12 04:04:04;;;;;;;7.88;5.15;;;;;;;20.47;nan;58838.44;4992225;28;20157;-58
2023/06/12 04:06:30;;;;;;;9.52;5.70;;;;;;;20.38;nan;59124.28;4991616;28;20184;-58
2023/06/12 04:08:56;;;;;;;8.27;5.10;;;;;;;20.48;nan;59301.22;4992257;28;20268;-57
2023/06/12 04:11:22;;;;;;;11.35;5.72;;;;;;;20.57;nan;59339.03;4991992;28;20667;-58
2023/06/12 04:13:47;;;;;;;8.23;5.78;;;;;;;20.94;nan;59604.84;4991769;28;20181;-57
2023/06/12 04:16:13;;;;;;;8.43;5.25;;;;;;;22.30;nan;60086.41;4991897;28;20165;-57
2023/06/12 04:18:39;;;;;;;9.35;4.97;;;;;;;24.53;nan;61354.59;4991919;28;20596;-57
2023/06/12 04:21:05;;;;;;;6.20;4.60;;;;;;;26.70;nan;62522.00;4992112;28;20161;-57
2023/06/12 04:23:31;;;;;;;8.20;4.80;;;;;;;27.85;nan;62732.78;4974275;28;20177;-59
2023/06/12 04:26:04;;;;;;;7.82;4.93;;;;;;;28.45;nan;63024.59;4991741;28;20173;-57
2023/06/12 04:28:36;;;;;;;8.65;5.43;;;;;;;29.66;nan;63038.97;4994838;28;20185;-56
2023/06/12 04:31:02;;;;;;;7.03;4.45;;;;;;;30.64;nan;63136.88;4995003;28;20252;-59
2023/06/12 04:33:32;;;;;;;7.63;4.43;;;;;;;31.03;nan;63249.88;4995480;28;20180;-59
2023/06/12 04:36:03;;;;;;;7.25;4.75;;;;;;;30.76;nan;63185.00;4995550;28;20187;-57
2023/06/12 04:38:30;;;;;;;6.90;4.30;;;;;;;29.52;nan;63046.59;4995379;28;20238;-58
2023/06/12 04:40:58;;;;;;;8.35;4.80;;;;;;;29.55;nan;62986.25;4994994;28;20290;-57
2023/06/12 04:43:24;;;;;;;8.60;4.60;;;;;;;29.59;nan;63027.72;4994581;28;20168;-59
2023/06/12 04:45:53;;;;;;;7.78;4.70;;;;;;;29.91;nan;63045.53;4994878;28;20180;-58
2023/06/12 04:48:19;;;;;;;6.80;5.00;;;;;;;30.00;nan;63082.25;4991802;28;20192;-57
2023/06/12 04:50:48;;;;;;;6.63;4.80;;;;;;;30.44;nan;63154.00;4994618;28;20222;-59
2023/06/12 04:53:17;;;;;;;8.98;5.00;;;;;;;30.11;nan;63076.44;4994561;28;20180;-57
2023/06/12 04:55:50;;;;;;;6.47;4.65;;;;;;;30.06;nan;63079.16;4992133;28;20180;-57
2023/06/12 04:58:18;;;;;;;5.78;4.15;;;;;;;29.99;nan;63102.75;4994182;28;20203;-58
2023/06/12 05:00:47;;;;;;;6.40;4.18;;;;;;;30.20;nan;63115.81;4992127;28;20180;-58
2023/06/12 05:03:20;;;;;;;7.72;4.70;;;;;;;30.03;nan;63056.69;4994309;28;20202;-59
2023/06/12 05:05:45;;;;;;;5.40;3.90;;;;;;;29.71;nan;62931.41;4994912;28;20167;-57
2023/06/12 05:08:11;;;;;;;6.45;4.20;;;;;;;30.41;nan;63107.75;4993519;28;20180;-56
2023/06/12 05:10:37;;;;;;;6.32;3.97;;;;;;;30.36;nan;63136.28;4994231;28;20190;-56
2023/06/12 05:13:03;;;;;;;6.97;4.40;;;;;;;30.45;nan;63191.50;4993765;28;20164;-57
2023/06/12 05:15:29;;;;;;;6.20;4.15;;;;;;;30.51;nan;63146.25;4994184;28;20560;-56
2023/06/12 05:17:55;;;;;;;6.18;4.05;;;;;;;30.49;nan;63209.31;4994061;28;20169;-60
2023/06/12 05:20:20;;;;;;;6.53;4.07;;;;;;;30.83;nan;63427.47;4993360;28;20207;-58
2023/06/12 05:22:46;;;;;;;6.47;3.42;;;;;;;31.19;nan;63278.91;4993545;28;20215;-58
2023/06/12 05:25:12;;;;;;;6.13;3.83;;;;;;;31.43;nan;63547.09;4993596;28;20168;-58
2023/06/12 05:27:37;;;;;;;5.30;3.70;;;;;;;31.70;nan;63341.88;4993809;28;20172;-58
2023/06/12 05:30:04;;;;;;;7.07;4.22;;;;;;;31.80;nan;63361.38;4993756;28;20172;-57
2023/06/12 05:32:30;;;;;;;7.82;3.67;;;;;;;31.95;nan;63407.78;4993965;28;20275;-58
2023/06/12 05:34:55;;;;;;;6.00;3.80;;;;;;;32.00;nan;63471.72;4993797;28;20199;-59
2023/06/12 05:37:20;;;;;;;4.10;3.20;;;;;;;31.54;nan;63323.97;4993046;28;20183;-58
2023/06/12 05:39:46;;;;;;;7.72;3.88;;;;;;;31.84;nan;63591.34;4992134;28;20200;-58
2023/06/12 05:42:11;;;;;;;5.47;3.53;;;;;;;31.64;nan;63353.47;4993212;28;20717;-59
2023/06/12 05:44:37;;;;;;;6.00;3.95;;;;;;;31.36;nan;63280.00;4993310;28;20180;-59
2023/06/12 05:47:02;;;;;;;4.50;3.80;;;;;;;30.12;nan;63123.00;4993882;28;20222;-58
2023/06/12 05:49:28;;;;;;;7.00;4.45;;;;;;;29.54;nan;63030.47;4993518;28;20174;-56
2023/06/12 05:51:53;;;;;;;6.20;3.90;;;;;;;28.74;nan;62871.19;4993580;28;20262;-59
2023/06/12 05:54:19;;;;;;;6.13;4.35;;;;;;;28.27;nan;62836.19;4993488;28;20161;-58
2023/06/12 05:56:44;;;;;;;6.55;4.80;;;;;;;27.88;nan;62749.97;4993607;28;20191;-60
2023/06/12 05:59:10;;;;;;;5.70;4.43;;;;;;;27.67;nan;62739.00;4993371;28;20200;-58
2023/06/12 06:01:35;;;;;;;6.53;4.18;;;;;;;27.00;nan;62692.19;4993447;28;20176;-58
2023/06/12 06:04:01;;;;;;;4.97;3.63;;;;;;;26.97;nan;62662.50;4993033;28;20566;-58
2023/06/12 06:06:27;;;;;;;7.80;4.10;;;;;;;26.81;nan;62547.69;4993142;28;20611;-57
2023/06/12 06:08:53;;;;;;;5.97;4.30;;;;;;;25.56;nan;62445.16;4993219;28;20181;-56
2023/06/12 06:11:19;;;;;;;6.35;4.53;;;;;;;24.00;nan;62232.63;4993829;28;20177;-59
2023/06/12 06:13:46;;;;;;;7.35;4.40;;;;;;;23.02;nan;62137.09;4993394;28;20168;-59
2023/06/12 06:16:13;;;;;;;7.20;4.57;;;;;;;23.56;nan;62196.06;4976000;28;20263;-58
2023/06/12 06:18:40;;;;;;;5.68;3.92;;;;;;;23.90;nan;62205.56;4992824;28;20216;-58
2023/06/12 06:21:05;;;;;;;9.02;4.65;;;;;;;23.68;nan;62173.19;4992484;28;20173;-59
2023/06/12 06:23:32;;;;;;;6.90;4.65;;;;;;;23.72;nan;62196.03;4993228;28;20167;-58
2023/06/12 06:25:57;;;;;;;6.05;4.32;;;;;;;23.29;nan;62167.84;4993410;28;20252;-59
2023/06/12 06:28:23;;;;;;;8.57;4.43;;;;;;;23.75;nan;62206.72;4992988;28;20268;-58
2023/06/12 06:30:50;;;;;;;6.63;4.20;;;;;;;23.88;nan;62239.25;4992697;28;20172;-60
2023/06/12 06:33:15;;;;;;;10.20;4.68;;;;;;;23.97;nan;62425.00;4992953;28;20173;-58
2023/06/12 06:35:41;;;;;;;7.78;4.30;;;;;;;24.03;nan;62219.81;4992206;28;20652;-60
2023/06/12 06:38:06;;;;;;;8.32;4.75;;;;;;;24.33;nan;62267.09;4992969;28;20248;-60
2023/06/12 06:40:31;;;;;;;6.70;4.38;;;;;;;24.64;nan;62302.50;4992673;28;20307;-59
2023/06/12 06:42:57;;;;;;;7.20;4.53;;;;;;;24.85;nan;62380.81;4992581;28;20718;-60
2023/06/12 06:45:22;;;;;;;6.55;4.30;;;;;;;24.38;nan;62257.13;4992301;28;20173;-59
2023/06/12 06:47:48;;;;;;;7.80;4.43;;;;;;;24.55;nan;62315.72;4992628;28;20192;-58
2023/06/12 06:50:13;;;;;;;7.30;4.60;;;;;;;24.83;nan;62422.41;4992347;28;20181;-59
2023/06/12 06:52:38;;;;;;;6.47;4.28;;;;;;;24.76;nan;62370.50;4991551;28;20180;-58
2023/06/12 06:55:05;;;;;;;6.25;4.30;;;;;;;25.04;nan;62362.72;4992103;28;20181;-58
2023/06/12 06:57:30;;;;;;;6.63;4.30;;;;;;;25.17;nan;62413.63;4992566;28;20192;-59
2023/06/12 06:59:57;;;;;;;5.22;3.70;;;;;;;25.13;nan;62390.75;4992428;28;20204;-60
2023/06/12 07:02:22;;;;;;;6.72;4.13;;;;;;;25.24;nan;62429.50;4992116;28;20695;-59
2023/06/12 07:04:49;;;;;;;5.18;3.90;;;;;;;25.14;nan;62410.78;4991654;28;20263;-59
2023/06/12 07:07:15;;;;;;;7.38;3.92;;;;;;;25.35;nan;62379.25;4992594;28;20176;-63
2023/06/12 07:09:40;;;;;;;6.88;4.07;;;;;;;25.34;nan;62431.00;4992666;28;20253;-61
2023/06/12 07:12:06;;;;;;;7.30;3.75;;;;;;;25.90;nan;62522.72;4992289;28;20230;-60
2023/06/12 07:14:31;;;;;;;5.57;3.72;;;;;;;25.75;nan;62502.97;4975091;28;20183;-56
2023/06/12 07:16:56;;;;;;;6.18;4.05;;;;;;;25.95;nan;62552.03;4992420;28;20566;-62
2023/06/12 07:19:22;;;;;;;5.03;3.75;;;;;;;26.50;nan;62579.81;4992037;28;20204;-58
2023/06/12 07:21:48;;;;;;;5.97;4.10;;;;;;;26.69;nan;62612.63;4992358;28;20659;-57
2023/06/12 07:24:17;;;;;;;5.90;3.83;;;;;;;26.67;nan;62591.41;4991613;28;20255;-61
2023/06/12 07:26:43;;;;;;;6.18;4.18;;;;;;;26.61;nan;62587.75;4991752;28;20181;-58
2023/06/12 07:29:09;;;;;;;5.85;4.00;;;;;;;26.58;nan;62581.69;4992406;28;20280;-58
2023/06/12 07:31:34;;;;;;;6.70;3.95;;;;;;;26.09;nan;62719.44;4992267;28;20172;-60
2023/06/12 07:33:59;;;;;;;6.18;4.22;;;;;;;26.35;nan;62568.47;4991896;28;20225;-57
2023/06/12 07:36:25;;;;;;;5.40;3.92;;;;;;;26.54;nan;62569.25;4992836;28;20168;-57
2023/06/12 07:38:51;;;;;;;7.88;4.70;;;;;;;26.09;nan;62722.63;4991664;28;20206;-59
2023/06/12 07:41:17;;;;;;;8.23;4.75;;;;;;;26.16;nan;62515.81;4991834;28;20216;-61
2023/06/12 07:43:43;;;;;;;6.10;4.10;;;;;;;26.13;nan;62545.88;4992600;28;20230;-59
2023/06/12 07:46:08;;;;;;;5.60;4.03;;;;;;;26.03;nan;62523.97;4992263;28;20584;-58
2023/06/12 07:48:33;;;;;;;5.63;4.30;;;;;;;25.32;nan;62407.81;4992390;28;20718;-59
2023/06/12 07:50:59;;;;;;;7.20;4.22;;;;;;;25.49;nan;62445.56;4992951;28;20183;-57
2023/06/12 07:53:24;;;;;;;6.85;4.20;;;;;;;25.93;nan;62746.78;4992378;28;20173;-59
2023/06/12 07:55:50;;;;;;;8.75;4.53;;;;;;;25.86;nan;62499.81;4992084;28;20169;-58
2023/06/12 07:58:15;;;;;;;6.10;4.13;;;;;;;26.26;nan;62526.72;4991924;28;20180;-57
2023/06/12 08:00:41;;;;;;;7.55;4.20;;;;;;;25.94;nan;62499.06;4991908;28;20538;-61
2023/06/12 08:03:08;;;;;;;8.30;4.78;;;;;;;26.02;nan;62536.47;4994985;28;20177;-60
2023/06/12 08:05:34;;;;;;;6.60;4.45;;;;;;;25.79;nan;62476.69;4996227;28;20671;-57
2023/06/12 08:08:00;;;;;;;8.40;4.32;;;;;;;25.79;nan;62529.06;4995928;28;20644;-58
2023/06/12 08:10:26;;;;;;;6.10;3.53;;;;;;;26.35;nan;62555.38;4995903;28;20207;-60
2023/06/12 08:12:51;;;;;;;4.63;3.20;;;;;;;26.11;nan;62533.09;4995811;28;20172;-59
2023/06/12 08:15:17;;;;;;;4.95;3.63;;;;;;;26.06;nan;62495.94;4995959;28;20235;-60
2023/06/12 08:17:42;;;;;;;5.30;3.65;;;;;;;26.28;nan;62549.97;4995549;28;20185;-60
2023/06/12 08:20:10;;;;;;;5.50;4.22;;;;;;;26.60;nan;62602.31;4995987;28;20265;-59
2023/06/12 08:22:36;;;;;;;5.72;3.25;;;;;;;27.11;nan;62683.81;4995933;28;20169;-60
2023/06/12 08:25:09;;;;;;;6.32;3.22;;;;;;;26.81;nan;62639.50;4995849;28;20181;-58
2023/06/12 08:27:35;;;;;;;5.20;3.78;;;;;;;26.46;nan;62588.91;4995495;28;20248;-58
2023/06/12 08:30:02;;;;;;;5.00;3.35;;;;;;;26.95;nan;62622.94;4995538;28;20259;-60
2023/06/12 08:32:28;;;;;;;4.93;3.22;;;;;;;27.19;nan;62640.47;4995578;28;20161;-57
2023/06/12 08:34:53;;;;;;;4.25;3.28;;;;;;;27.74;nan;62759.59;4995449;28;20287;-58
2023/06/12 08:37:22;;;;;;;4.80;3.38;;;;;;;27.61;nan;62944.84;4995639;28;20169;-60
2023/06/12 08:39:47;;;;;;;6.57;3.30;;;;;;;27.72;nan;62734.22;4996175;28;20212;-60
2023/06/12 08:42:17;;;;;;;6.55;3.60;;;;;;;27.92;nan;62786.06;4995029;28;20220;-58
2023/06/12 08:44:47;;;;;;;4.45;3.30;;;;;;;27.79;nan;62773.78;5002469;28;20204;-59
2023/06/12 08:47:15;;;;;;;4.53;3.50;;;;;;;28.32;nan;62834.06;4995229;28;20200;-57
2023/06/12 08:49:42;;;;;;;4.68;3.35;;;;;;;28.05;nan;62756.31;4995228;28;20180;-57
2023/06/12 08:52:09;;;;;;;6.85;3.42;;;;;;;28.35;nan;62834.28;4994771;28;20258;-59
2023/06/12 08:54:39;;;;;;;8.23;3.65;;;;;;;28.24;nan;62850.59;4994672;28;20630;-56
2023/06/12 08:57:06;;;;;;;6.25;3.75;;;;;;;28.04;nan;62780.88;4994617;28;20190;-58
2023/06/12 08:59:32;;;;;;;5.22;3.60;;;;;;;26.87;nan;62622.19;4995102;28;20211;-58
2023/06/12 09:01:59;;;;;;;6.90;3.60;;;;;;;26.79;nan;62645.06;4995463;28;20607;-57
2023/06/12 09:04:41;;;;;;;4.18;3.33;;;;;;;26.99;nan;62653.75;4994718;28;20259;-57
2023/06/12 09:07:06;;;;;;;5.22;3.40;;;;;;;26.79;nan;62584.16;4994909;28;20188;-57
2023/06/12 09:09:39;;;;;;;5.07;3.50;;;;;;;26.52;nan;62589.97;4994607;28;20668;-59
2023/06/12 09:12:08;;;;;;;5.10;3.63;;;;;;;26.66;nan;62588.22;4994956;28;20654;-57
2023/06/12 09:14:35;;;;;;;5.80;3.88;;;;;;;26.60;nan;62614.84;4993793;28;20543;-60
2023/06/12 09:17:01;;;;;;;5.05;3.70;;;;;;;27.24;nan;62688.19;4994730;28;20208;-59
2023/06/12 09:19:35;;;;;;;4.57;3.40;;;;;;;26.91;nan;62665.56;4994622;28;20200;-60
2023/06/12 09:22:02;;;;;;;5.00;3.58;;;;;;;28.02;nan;62770.69;4994819;28;20190;-60
2023/06/12 09:24:27;;;;;;;4.78;3.50;;;;;;;27.89;nan;62772.13;4995157;28;20184;-58
2023/06/12 09:26:55;;;;;;;5.13;3.70;;;;;;;27.10;nan;62714.16;4994580;28;20690;-57
2023/06/12 09:29:28;;;;;;;6.70;3.85;;;;;;;26.85;nan;62646.13;4994357;28;20169;-58
2023/06/12 09:31:54;;;;;;;5.25;3.20;;;;;;;26.64;nan;62604.28;4974846;28;20264;-57
2023/06/12 09:34:20;;;;;;;7.90;3.90;;;;;;;26.18;nan;62533.25;4974516;28;20637;-59
2023/06/12 09:36:47;;;;;;;4.75;3.60;;;;;;;25.78;nan;62467.69;4974556;28;20248;-59
2023/06/12 09:39:23;;;;;;;5.63;3.47;;;;;;;26.56;nan;62607.66;4974905;28;20209;-60
2023/06/12 09:41:49;;;;;;;4.97;3.22;;;;;;;27.08;nan;62688.25;4974850;28;20227;-56
2023/06/12 09:44:24;;;;;;;5.07;3.35;;;;;;;27.92;nan;62754.56;4974696;28;20169;-60
2023/06/12 09:46:53;;;;;;;6.25;3.60;;;;;;;28.23;nan;62820.50;4974639;28;20184;-59
2023/06/12 09:49:22;;;;;;;6.80;3.50;;;;;;;28.01;nan;62785.91;4974631;28;20602;-58
2023/06/12 09:51:49;;;;;;;8.38;3.67;;;;;;;28.06;nan;62789.00;4974627;28;20189;-60
2023/06/12 09:54:16;;;;;;;5.93;3.47;;;;;;;28.09;nan;62789.81;4974580;28;20173;-59
2023/06/12 09:56:44;;;;;;;5.55;3.65;;;;;;;28.22;nan;62769.41;4974596;28;20184;-58
2023/06/12 09:59:17;;;;;;;5.88;3.75;;;;;;;28.05;nan;62822.03;4974321;28;20193;-59
2023/06/12 10:01:46;;;;;;;5.05;3.58;;;;;;;27.84;nan;62755.88;4974510;28;20165;-59
2023/06/12 10:04:14;;;;;;;5.32;3.40;;;;;;;27.31;nan;62676.72;4974384;28;20173;-58
2023/06/12 10:06:42;;;;;;;4.60;3.60;;;;;;;27.17;nan;62693.31;4974768;28;20174;-58
2023/06/12 10:09:08;;;;;;;5.00;3.60;;;;;;;27.12;nan;62695.44;4974092;28;20188;-58
2023/06/12 10:11:37;;;;;;;5.15;3.95;;;;;;;27.43;nan;62735.09;4974186;28;20264;-59
2023/06/12 10:14:03;;;;;;;5.30;3.70;;;;;;;27.91;nan;62773.84;4974175;28;20169;-61
2023/06/12 10:16:30;;;;;;;5.43;3.95;;;;;;;28.17;nan;62798.44;4974310;28;20177;-57
2023/06/12 10:18:56;;;;;;;5.82;3.97;;;;;;;28.32;nan;62805.13;4974005;28;20201;-58
2023/06/12 10:21:22;;;;;;;5.25;3.58;;;;;;;27.93;nan;62789.28;4974104;28;20173;-61
2023/06/12 10:23:50;;;;;;;5.85;3.78;;;;;;;28.15;nan;62830.31;4973918;28;20541;-59
2023/06/12 10:26:16;;;;;;;5.07;3.83;;;;;;;28.05;nan;62751.06;4984792;28;20180;-58
2023/06/12 10:28:42;;;;;;;5.72;3.67;;;;;;;27.49;nan;62715.75;4992305;28;20206;-58
2023/06/12 10:31:11;;;;;;;5.35;3.75;;;;;;;27.72;nan;62742.13;4992671;28;20639;-57
2023/06/12 10:33:37;;;;;;;5.32;3.50;;;;;;;27.63;nan;62981.88;4992933;28;20508;-56
2023/06/12 10:36:12;;;;;;;6.50;4.13;;;;;;;27.55;nan;62722.63;4992476;28;20165;-58
2023/06/12 10:38:44;;;;;;;7.20;3.67;;;;;;;27.57;nan;62753.78;4992400;28;20342;-57
2023/06/12 10:41:10;;;;;;;5.00;3.90;;;;;;;27.78;nan;62751.06;4992317;28;20231;-61
2023/06/12 10:43:35;;;;;;;6.32;3.72;;;;;;;28.23;nan;62775.81;4992396;28;20169;-59
2023/06/12 10:46:01;;;;;;;5.30;3.88;;;;;;;28.53;nan;62899.69;4975223;28;20555;-55
2023/06/12 10:48:27;;;;;;;6.78;4.53;;;;;;;28.29;nan;62816.91;4992400;28;20165;-59
2023/06/12 10:50:54;;;;;;;5.93;4.60;;;;;;;28.05;nan;62769.44;4992680;28;20168;-57
2023/06/12 10:53:44;;;;;;;5.63;3.97;;;;;;;27.64;nan;62719.81;4974837;28;20603;-55
2023/06/12 10:56:10;;;;;;;5.75;4.18;;;;;;;27.68;nan;62740.16;4992783;28;20168;-60
2023/06/12 10:58:40;;;;;;;6.75;4.57;;;;;;;27.61;nan;62758.97;4992304;28;20251;-59
2023/06/12 11:01:10;;;;;;;5.78;4.57;;;;;;;27.34;nan;62704.34;4992391;28;20263;-60
2023/06/12 11:03:42;;;;;;;7.38;4.57;;;;;;;27.66;nan;62717.41;4992382;28;20528;-60
2023/06/12 11:06:15;;;;;;;5.50;4.28;;;;;;;27.67;nan;62975.41;4992335;28;20184;-58
2023/06/12 11:08:41;;;;;;;8.18;4.78;;;;;;;27.18;nan;62880.81;4992398;28;20175;-60
2023/06/12 11:11:08;;;;;;;5.22;4.28;;;;;;;27.14;nan;62663.63;4991141;28;20181;-59
2023/06/12 11:13:35;;;;;;;6.97;4.55;;;;;;;25.99;nan;62606.38;4992754;28;20219;-60
2023/06/12 11:16:01;;;;;;;7.05;4.63;;;;;;;27.02;nan;62668.25;4992990;28;20185;-59
2023/06/12 11:18:26;;;;;;;7.22;4.57;;;;;;;27.08;nan;62885.06;4992354;28;20263;-57
2023/06/12 11:20:56;;;;;;;6.10;4.63;;;;;;;27.03;nan;62590.09;4992200;28;20663;-56
2023/06/12 11:23:26;;;;;;;11.50;4.45;;;;;;;27.20;nan;62662.06;4992855;28;20268;-59
2023/06/12 11:25:54;;;;;;;7.22;5.07;;;;;;;27.50;nan;62743.72;4992755;28;20184;-57
2023/06/12 11:28:20;;;;;;;8.25;4.35;;;;;;;27.63;nan;62737.63;4992529;28;20177;-62
2023/06/12 11:30:50;;;;;;;7.50;4.82;;;;;;;27.34;nan;62824.53;4992557;28;20179;-58
2023/06/12 11:33:17;;;;;;;8.90;4.45;;;;;;;27.41;nan;62728.13;4992364;28;20168;-58
2023/06/12 11:35:47;;;;;;;5.63;4.50;;;;;;;27.78;nan;62993.31;4991767;28;20748;-59
2023/06/12 11:38:22;;;;;;;5.28;4.18;;;;;;;27.63;nan;62731.78;4992049;28;20231;-61
2023/06/12 11:40:50;;;;;;;6.88;4.50;;;;;;;27.73;nan;62973.84;4992272;28;20193;-59
2023/06/12 11:43:17;;;;;;;5.63;3.97;;;;;;;27.41;nan;62704.50;4992621;28;20157;-58
2023/06/12 11:45:43;;;;;;;7.72;4.40;;;;;;;28.10;nan;62761.47;4992407;28;20216;-57
2023/06/12 11:48:14;;;;;;;6.53;3.90;;;;;;;28.26;nan;62797.66;4992282;28;20156;-59
2023/06/12 11:50:41;;;;;;;7.68;4.50;;;;;;;28.25;nan;62844.44;4992551;28;20239;-58